Time;durP1;ratioP1;P1;durP2;ratioP2;P2;SDS_P1;SDS_P2;PMS_P1;PMS_P2;Temp;Humidity;BMP_temperature;BMP_pressure;BME280_temperature;BME280_humidity;BME280_pressure;Samples;Min_cycle;Max_cycle;Signal;HPM_P1;HPM_P2
2022/03/08 00:00:41;;;;;;;21.73;11.35;;;;;;;;;;4888556;29;20151;-70
2022/03/08 00:03:07;;;;;;;22.50;12.43;;;;;;;;;;4889119;29;20055;-69
2022/03/08 00:05:32;;;;;;;19.08;12.32;;;;;;;;;;4889362;29;20036;-72
2022/03/08 00:07:58;;;;;;;15.13;9.45;;;;;;;;;;4889478;29;20088;-71
2022/03/08 00:10:25;;;;;;;20.35;12.02;;;;;;;;;;4889268;29;20047;-73
2022/03/08 00:12:51;;;;;;;20.63;11.48;;;;;;;;;;4888470;29;20406;-71
2022/03/08 00:15:19;;;;;;;15.52;10.55;;;;;;;;;;4888960;29;20040;-71
2022/03/08 00:17:45;;;;;;;19.77;11.07;;;;;;;;;;4888098;29;20040;-71
2022/03/08 00:20:12;;;;;;;21.30;11.68;;;;;;;;;;4889223;29;20048;-72
2022/03/08 00:22:38;;;;;;;18.58;9.05;;;;;;;;;;4887474;29;20044;-69
2022/03/08 00:25:05;;;;;;;16.77;10.60;;;;;;;;;;4888393;29;20171;-71
2022/03/08 00:27:31;;;;;;;23.10;12.73;;;;;;;;;;4871413;29;20036;-71
2022/03/08 00:29:57;;;;;;;12.20;8.05;;;;;;;;;;4888741;29;20051;-72
2022/03/08 00:32:23;;;;;;;17.17;10.30;;;;;;;;;;4871884;29;20044;-70
2022/03/08 00:34:48;;;;;;;20.13;12.35;;;;;;;;;;4871478;29;20088;-71
2022/03/08 00:37:14;;;;;;;25.35;15.07;;;;;;;;;;4888698;29;20510;-68
2022/03/08 00:39:40;;;;;;;18.58;10.90;;;;;;;;;;4888795;29;20044;-71
2022/03/08 00:42:11;;;;;;;23.13;13.25;;;;;;;;;;4888391;29;20037;-71
2022/03/08 00:44:38;;;;;;;19.48;11.32;;;;;;;;;;4888269;29;20040;-71
2022/03/08 00:47:04;;;;;;;18.55;11.60;;;;;;;;;;4888526;29;20248;-69
2022/03/08 00:49:29;;;;;;;17.75;10.32;;;;;;;;;;4888654;29;20486;-72
2022/03/08 00:51:54;;;;;;;17.13;9.70;;;;;;;;;;4871626;29;20032;-70
2022/03/08 00:54:22;;;;;;;19.45;10.13;;;;;;;;;;4888442;29;20036;-71
2022/03/08 00:56:47;;;;;;;23.33;13.25;;;;;;;;;;4887704;29;20036;-71
2022/03/08 00:59:13;;;;;;;24.23;13.95;;;;;;;;;;4888426;29;20379;-69
2022/03/08 01:01:39;;;;;;;25.65;13.40;;;;;;;;;;4871523;29;20617;-71
2022/03/08 01:04:04;;;;;;;24.02;14.23;;;;;;;;;;4871357;29;20052;-69
2022/03/08 01:06:30;;;;;;;24.00;14.65;;;;;;;;;;4887416;29;20248;-73
2022/03/08 01:08:56;;;;;;;21.17;12.52;;;;;;;;;;4888265;29;20037;-69
2022/03/08 01:11:24;;;;;;;18.73;11.70;;;;;;;;;;4888334;29;20566;-69
2022/03/08 01:13:51;;;;;;;15.13;10.45;;;;;;;;;;4882173;29;20029;-72
2022/03/08 01:16:16;;;;;;;19.58;11.23;;;;;;;;;;4887964;29;20036;-71
2022/03/08 01:18:42;;;;;;;17.63;10.82;;;;;;;;;;4870692;29;20052;-71
2022/03/08 01:21:08;;;;;;;29.67;13.57;;;;;;;;;;4887981;29;20040;-69
2022/03/08 01:23:34;;;;;;;13.88;8.90;;;;;;;;;;4888059;29;20040;-71
2022/03/08 01:25:59;;;;;;;26.35;15.55;;;;;;;;;;4887629;29;20134;-69
2022/03/08 01:28:25;;;;;;;26.88;13.05;;;;;;;;;;4870825;29;20044;-71
2022/03/08 01:30:50;;;;;;;8.15;5.68;;;;;;;;;;4887525;29;20052;-71
2022/03/08 01:33:15;;;;;;;23.50;12.25;;;;;;;;;;4870663;29;20068;-73
2022/03/08 01:35:43;;;;;;;24.08;14.13;;;;;;;;;;4887590;29;20048;-72
2022/03/08 01:38:09;;;;;;;20.02;12.00;;;;;;;;;;4887910;29;20040;-71
2022/03/08 01:40:34;;;;;;;22.75;12.25;;;;;;;;;;4870077;29;20453;-69
2022/03/08 01:43:01;;;;;;;22.02;14.25;;;;;;;;;;4870553;29;20089;-68
2022/03/08 01:45:26;;;;;;;20.48;11.40;;;;;;;;;;4887712;29;20041;-71
2022/03/08 01:47:53;;;;;;;23.77;13.25;;;;;;;;;;4887571;29;20045;-68
2022/03/08 01:50:18;;;;;;;18.27;11.13;;;;;;;;;;4886902;29;20032;-69
2022/03/08 01:52:44;;;;;;;22.23;13.02;;;;;;;;;;4875102;29;20037;-71
2022/03/08 01:55:12;;;;;;;25.88;12.48;;;;;;;;;;4886508;29;20088;-70
2022/03/08 01:57:38;;;;;;;28.63;15.60;;;;;;;;;;4887608;29;20511;-71
2022/03/08 02:00:10;;;;;;;27.50;16.52;;;;;;;;;;4870353;29;20067;-70
2022/03/08 02:02:39;;;;;;;21.73;12.90;;;;;;;;;;4887378;29;20123;-71
2022/03/08 02:05:05;;;;;;;17.40;9.88;;;;;;;;;;4886719;29;20422;-72
2022/03/08 02:07:30;;;;;;;25.83;15.15;;;;;;;;;;4883987;29;20040;-69
2022/03/08 02:09:56;;;;;;;21.30;12.93;;;;;;;;;;4886699;29;20062;-70
2022/03/08 02:12:21;;;;;;;29.80;13.50;;;;;;;;;;4886496;29;20044;-69
2022/03/08 02:14:46;;;;;;;22.08;14.10;;;;;;;;;;4886800;29;20029;-70
2022/03/08 02:17:12;;;;;;;26.20;14.95;;;;;;;;;;4887111;29;20127;-70
2022/03/08 02:19:37;;;;;;;27.65;15.48;;;;;;;;;;4886816;29;20593;-71
2022/03/08 02:22:03;;;;;;;18.33;10.20;;;;;;;;;;4887015;29;20430;-71
2022/03/08 02:24:28;;;;;;;19.85;11.10;;;;;;;;;;4885681;29;20032;-69
2022/03/08 02:26:54;;;;;;;20.35;11.40;;;;;;;;;;4870008;29;20052;-71
2022/03/08 02:29:19;;;;;;;25.98;14.88;;;;;;;;;;4886952;29;20036;-69
2022/03/08 02:31:47;;;;;;;23.05;13.48;;;;;;;;;;4886743;29;20048;-69
2022/03/08 02:34:14;;;;;;;18.35;11.25;;;;;;;;;;4886037;29;20107;-70
2022/03/08 02:36:41;;;;;;;16.50;9.85;;;;;;;;;;4886595;29;20474;-72
2022/03/08 02:39:07;;;;;;;19.15;11.82;;;;;;;;;;4886523;29;20052;-71
2022/03/08 02:41:32;;;;;;;23.23;12.38;;;;;;;;;;4887019;29;20044;-71
2022/03/08 02:43:58;;;;;;;18.35;10.35;;;;;;;;;;4886672;29;20051;-72
2022/03/08 02:46:23;;;;;;;18.88;10.88;;;;;;;;;;4875039;29;20123;-72
2022/03/08 02:48:49;;;;;;;24.20;13.10;;;;;;;;;;4884691;29;20040;-70
2022/03/08 02:51:14;;;;;;;18.38;12.27;;;;;;;;;;4884771;29;20051;-72
2022/03/08 02:53:40;;;;;;;16.52;10.27;;;;;;;;;;4885273;29;20059;-71
2022/03/08 02:56:05;;;;;;;17.05;11.52;;;;;;;;;;4887940;29;20044;-71
2022/03/08 02:58:30;;;;;;;18.25;10.73;;;;;;;;;;4889287;29;20525;-72
2022/03/08 03:00:56;;;;;;;21.85;12.07;;;;;;;;;;4888529;29;20406;-70
2022/03/08 03:03:21;;;;;;;19.05;13.18;;;;;;;;;;4886251;29;20040;-71
2022/03/08 03:05:47;;;;;;;22.77;12.98;;;;;;;;;;4886580;29;20024;-71
2022/03/08 03:08:12;;;;;;;22.00;10.73;;;;;;;;;;4885533;29;20055;-72
2022/03/08 03:10:39;;;;;;;22.77;12.93;;;;;;;;;;4886364;29;20224;-70
2022/03/08 03:13:05;;;;;;;19.70;11.98;;;;;;;;;;4886179;29;20052;-71
2022/03/08 03:15:30;;;;;;;29.20;13.50;;;;;;;;;;4886045;29;20044;-69
2022/03/08 03:17:57;;;;;;;16.33;9.65;;;;;;;;;;4886042;29;20051;-71
2022/03/08 03:20:23;;;;;;;20.80;11.20;;;;;;;;;;4885447;29;20076;-69
2022/03/08 03:22:49;;;;;;;21.38;11.80;;;;;;;;;;4886398;29;20037;-71
2022/03/08 03:25:15;;;;;;;20.67;11.55;;;;;;;;;;4885624;29;20509;-72
2022/03/08 03:27:41;;;;;;;21.13;13.38;;;;;;;;;;4886242;29;20059;-71
2022/03/08 03:30:13;;;;;;;18.42;10.45;;;;;;;;;;4886008;29;20068;-71
2022/03/08 03:32:39;;;;;;;;;;;;;;;;;;4886460;29;20053;-72
2022/03/08 03:35:06;;;;;;;19.40;11.30;;;;;;;;;;4885861;29;19919;-71
2022/03/08 03:37:32;;;;;;;20.60;12.20;;;;;;;;;;4886193;29;20040;-71
2022/03/08 03:39:57;;;;;;;21.90;10.50;;;;;;;;;;4885981;29;20098;-72
2022/03/08 03:42:23;;;;;;;23.52;10.43;;;;;;;;;;4874650;29;20032;-70
2022/03/08 03:44:49;;;;;;;18.60;10.43;;;;;;;;;;4885997;29;20124;-71
2022/03/08 03:47:14;;;;;;;16.60;8.63;;;;;;;;;;4885773;29;20036;-72
2022/03/08 03:49:40;;;;;;;20.70;12.50;;;;;;;;;;4886331;29;20103;-72
2022/03/08 03:52:05;;;;;;;20.73;13.18;;;;;;;;;;4885765;29;20049;-69
2022/03/08 03:54:31;;;;;;;20.80;12.73;;;;;;;;;;4885545;29;20044;-70
2022/03/08 03:56:56;;;;;;;22.00;11.32;;;;;;;;;;4885773;29;20044;-72
2022/03/08 03:59:22;;;;;;;22.40;13.05;;;;;;;;;;4886217;29;20052;-72
2022/03/08 04:01:47;;;;;;;21.52;11.88;;;;;;;;;;4885439;29;20450;-71
2022/03/08 04:04:13;;;;;;;25.70;14.30;;;;;;;;;;4885104;29;20466;-71
2022/03/08 04:06:38;;;;;;;21.77;12.88;;;;;;;;;;4885613;29;20028;-72
2022/03/08 04:09:04;;;;;;;21.00;12.13;;;;;;;;;;4884534;29;20048;-71
2022/03/08 04:11:30;;;;;;;18.45;10.77;;;;;;;;;;4870276;29;20036;-69
2022/03/08 04:13:55;;;;;;;22.38;12.88;;;;;;;;;;4885708;29;20418;-69
2022/03/08 04:16:21;;;;;;;16.23;9.68;;;;;;;;;;4883770;29;20372;-69
2022/03/08 04:18:46;;;;;;;24.63;12.75;;;;;;;;;;4889377;29;20557;-69
2022/03/08 04:21:12;;;;;;;21.35;11.32;;;;;;;;;;4889091;29;20068;-71
2022/03/08 04:23:37;;;;;;;11.50;7.03;;;;;;;;;;4889150;29;20076;-72
2022/03/08 04:26:03;;;;;;;19.48;11.52;;;;;;;;;;4888147;29;20718;-71
2022/03/08 04:28:28;;;;;;;19.17;11.02;;;;;;;;;;4889210;29;20051;-71
2022/03/08 04:30:54;;;;;;;12.20;7.72;;;;;;;;;;4888868;29;20051;-71
2022/03/08 04:33:19;;;;;;;21.00;12.52;;;;;;;;;;4888703;29;20056;-70
2022/03/08 04:35:44;;;;;;;22.38;11.57;;;;;;;;;;4888928;29;20119;-70
2022/03/08 04:38:10;;;;;;;22.55;12.20;;;;;;;;;;4887917;29;20537;-69
2022/03/08 04:40:35;;;;;;;24.10;12.40;;;;;;;;;;4889135;29;21050;-71
2022/03/08 04:43:01;;;;;;;18.05;10.82;;;;;;;;;;4888886;29;21014;-71
2022/03/08 04:45:26;;;;;;;27.48;14.82;;;;;;;;;;4888387;29;20561;-71
2022/03/08 04:47:52;;;;;;;28.40;14.52;;;;;;;;;;4887897;29;20095;-70
2022/03/08 04:50:17;;;;;;;21.25;12.75;;;;;;;;;;4888707;29;20032;-71
2022/03/08 04:52:44;;;;;;;22.23;12.02;;;;;;;;;;4888350;29;20439;-69
2022/03/08 04:55:12;;;;;;;21.65;11.85;;;;;;;;;;4871627;29;20769;-71
2022/03/08 04:57:38;;;;;;;22.98;11.85;;;;;;;;;;4888416;29;20086;-70
2022/03/08 05:00:07;;;;;;;19.98;12.18;;;;;;;;;;4887151;29;20032;-71
2022/03/08 05:02:33;;;;;;;16.65;8.90;;;;;;;;;;4894357;29;20067;-70
2022/03/08 05:04:58;;;;;;;23.83;13.80;;;;;;;;;;4888105;29;20080;-71
2022/03/08 05:07:24;;;;;;;19.05;11.88;;;;;;;;;;4888408;29;20080;-71
2022/03/08 05:09:49;;;;;;;17.27;10.73;;;;;;;;;;4887714;29;20494;-69
2022/03/08 05:12:15;;;;;;;17.63;10.40;;;;;;;;;;4888131;29;20078;-69
2022/03/08 05:14:41;;;;;;;16.20;9.77;;;;;;;;;;4887902;29;20044;-70
2022/03/08 05:17:07;;;;;;;21.67;12.20;;;;;;;;;;4888224;29;20494;-71
2022/03/08 05:19:32;;;;;;;22.65;11.88;;;;;;;;;;4888402;29;20037;-71
2022/03/08 05:21:58;;;;;;;19.42;12.35;;;;;;;;;;4887293;29;20040;-71
2022/03/08 05:24:23;;;;;;;20.88;12.35;;;;;;;;;;4888175;29;20044;-69
2022/03/08 05:26:49;;;;;;;21.05;11.25;;;;;;;;;;4888676;29;20040;-70
2022/03/08 05:29:14;;;;;;;20.08;12.50;;;;;;;;;;4887132;29;20041;-69
2022/03/08 05:31:40;;;;;;;20.15;12.75;;;;;;;;;;4887068;29;20052;-69
2022/03/08 05:34:05;;;;;;;27.73;11.30;;;;;;;;;;4887627;29;20487;-68
2022/03/08 05:36:31;;;;;;;20.98;11.52;;;;;;;;;;4888204;29;20032;-68
2022/03/08 05:38:56;;;;;;;20.50;12.25;;;;;;;;;;4888135;29;20059;-71
2022/03/08 05:41:22;;;;;;;18.90;11.75;;;;;;;;;;4888005;29;20047;-66
2022/03/08 05:43:47;;;;;;;22.40;12.55;;;;;;;;;;4886746;29;20036;-66
2022/03/08 05:46:13;;;;;;;23.60;12.68;;;;;;;;;;4887459;29;20041;-67
2022/03/08 05:48:38;;;;;;;22.05;12.93;;;;;;;;;;4887809;29;20040;-69
2022/03/08 05:51:04;;;;;;;128.45;47.63;;;;;;;;;;4887812;29;20089;-65
2022/03/08 05:53:29;;;;;;;22.17;12.85;;;;;;;;;;4887890;29;20048;-67
2022/03/08 05:55:55;;;;;;;20.20;11.63;;;;;;;;;;4886752;29;20033;-69
2022/03/08 05:58:21;;;;;;;22.95;13.27;;;;;;;;;;4885639;29;20406;-69
2022/03/08 06:00:46;;;;;;;22.08;11.20;;;;;;;;;;4885259;29;20483;-68
2022/03/08 06:03:12;;;;;;;21.92;10.93;;;;;;;;;;4878020;29;20265;-67
2022/03/08 06:05:38;;;;;;;19.63;10.98;;;;;;;;;;4886511;29;20037;-67
2022/03/08 06:08:04;;;;;;;21.45;11.43;;;;;;;;;;4887236;29;20450;-67
2022/03/08 06:10:30;;;;;;;13.85;8.60;;;;;;;;;;4887355;29;20040;-68
2022/03/08 06:12:56;;;;;;;22.48;12.05;;;;;;;;;;4886661;29;20406;-68
2022/03/08 06:15:21;;;;;;;18.52;11.77;;;;;;;;;;4878687;29;20503;-68
2022/03/08 06:17:47;;;;;;;19.15;10.57;;;;;;;;;;4884447;29;20099;-67
2022/03/08 06:20:12;;;;;;;14.38;8.32;;;;;;;;;;4885175;29;20045;-67
2022/03/08 06:22:38;;;;;;;15.25;9.18;;;;;;;;;;4885256;29;20140;-67
2022/03/08 06:25:04;;;;;;;19.90;9.55;;;;;;;;;;4885061;29;20055;-67
2022/03/08 06:27:30;;;;;;;20.45;12.05;;;;;;;;;;4884036;29;20047;-68
2022/03/08 06:29:55;;;;;;;16.90;9.95;;;;;;;;;;4885797;29;20450;-67
2022/03/08 06:32:21;;;;;;;20.60;10.23;;;;;;;;;;4885826;29;20076;-67
2022/03/08 06:34:46;;;;;;;20.02;10.82;;;;;;;;;;4886939;29;20048;-68
2022/03/08 06:37:12;;;;;;;21.60;11.55;;;;;;;;;;4886237;29;20048;-68
2022/03/08 06:39:38;;;;;;;22.08;11.27;;;;;;;;;;4886951;29;20375;-67
2022/03/08 06:42:04;;;;;;;13.05;8.07;;;;;;;;;;4886766;29;20055;-67
2022/03/08 06:44:31;;;;;;;18.92;10.25;;;;;;;;;;4886727;29;20042;-67
2022/03/08 06:46:58;;;;;;;14.57;8.75;;;;;;;;;;4886227;29;20132;-68
2022/03/08 06:49:24;;;;;;;16.90;10.55;;;;;;;;;;4884894;29;20635;-68
2022/03/08 06:51:49;;;;;;;18.25;9.07;;;;;;;;;;4886475;29;20048;-67
2022/03/08 06:54:15;;;;;;;13.88;8.77;;;;;;;;;;4886469;29;20049;-67
2022/03/08 06:56:40;;;;;;;18.63;10.82;;;;;;;;;;4886592;29;20044;-68
2022/03/08 06:59:06;;;;;;;19.20;11.35;;;;;;;;;;4885947;29;20135;-68
2022/03/08 07:01:31;;;;;;;14.18;9.38;;;;;;;;;;4886081;29;20486;-67
2022/03/08 07:03:57;;;;;;;20.65;12.02;;;;;;;;;;4886450;29;20040;-68
2022/03/08 07:06:23;;;;;;;17.50;11.55;;;;;;;;;;4886059;29;20040;-67
2022/03/08 07:08:48;;;;;;;31.55;11.38;;;;;;;;;;4886677;29;20047;-68
2022/03/08 07:11:14;;;;;;;19.58;10.20;;;;;;;;;;4883151;29;20056;-67
2022/03/08 07:13:39;;;;;;;16.90;11.05;;;;;;;;;;4886136;29;20160;-68
2022/03/08 07:16:05;;;;;;;18.52;10.50;;;;;;;;;;4886130;29;20059;-68
2022/03/08 07:18:30;;;;;;;24.42;10.70;;;;;;;;;;4869974;29;20180;-69
2022/03/08 07:20:56;;;;;;;18.38;11.25;;;;;;;;;;4886303;29;20115;-70
2022/03/08 07:23:22;;;;;;;19.40;9.88;;;;;;;;;;4886155;29;20060;-68
2022/03/08 07:25:48;;;;;;;17.58;10.98;;;;;;;;;;4886062;29;20048;-69
2022/03/08 07:28:13;;;;;;;17.48;10.85;;;;;;;;;;4892684;29;20055;-67
2022/03/08 07:30:38;;;;;;;14.40;10.02;;;;;;;;;;4894645;29;20056;-68
2022/03/08 07:33:04;;;;;;;14.95;9.70;;;;;;;;;;4888095;29;20036;-68
2022/03/08 07:35:29;;;;;;;14.68;9.13;;;;;;;;;;4886289;29;20047;-69
2022/03/08 07:37:55;;;;;;;19.08;10.88;;;;;;;;;;4885858;29;20052;-68
2022/03/08 07:40:20;;;;;;;15.75;9.85;;;;;;;;;;4885409;29;20039;-68
2022/03/08 07:42:46;;;;;;;16.80;9.98;;;;;;;;;;4886041;29;20056;-69
2022/03/08 07:45:12;;;;;;;14.38;9.55;;;;;;;;;;4885135;29;20767;-69
2022/03/08 07:47:38;;;;;;;13.68;9.27;;;;;;;;;;4886050;29;20076;-68
2022/03/08 07:50:05;;;;;;;13.13;8.90;;;;;;;;;;4886118;29;20486;-68
2022/03/08 07:52:30;;;;;;;12.55;9.63;;;;;;;;;;4887226;29;20032;-68
2022/03/08 07:54:56;;;;;;;12.93;9.38;;;;;;;;;;4872107;29;20047;-68
2022/03/08 07:57:21;;;;;;;16.15;10.25;;;;;;;;;;4889382;29;20589;-68
2022/03/08 07:59:47;;;;;;;10.57;8.00;;;;;;;;;;4889974;29;20131;-68
2022/03/08 08:02:12;;;;;;;13.65;8.57;;;;;;;;;;4889216;29;20478;-68
2022/03/08 08:04:37;;;;;;;12.20;8.57;;;;;;;;;;4889639;29;20040;-68
2022/03/08 08:07:03;;;;;;;10.80;7.20;;;;;;;;;;4888528;29;20036;-67
2022/03/08 08:09:29;;;;;;;15.68;9.27;;;;;;;;;;4889538;29;20144;-66
2022/03/08 08:11:55;;;;;;;12.40;8.82;;;;;;;;;;4889282;29;20044;-68
2022/03/08 08:14:21;;;;;;;14.00;9.35;;;;;;;;;;4888884;29;20104;-67
2022/03/08 08:16:46;;;;;;;13.52;9.32;;;;;;;;;;4888891;29;20075;-67
2022/03/08 08:19:12;;;;;;;11.85;8.80;;;;;;;;;;4889232;29;20040;-68
2022/03/08 08:21:37;;;;;;;14.70;9.18;;;;;;;;;;4889358;29;20032;-68
2022/03/08 08:24:04;;;;;;;15.32;9.27;;;;;;;;;;4888970;29;20434;-68
2022/03/08 08:26:30;;;;;;;12.52;9.25;;;;;;;;;;4889278;29;20140;-68
2022/03/08 08:28:55;;;;;;;11.52;8.30;;;;;;;;;;4888561;29;20119;-68
2022/03/08 08:31:21;;;;;;;9.93;7.80;;;;;;;;;;4888981;29;20123;-68
2022/03/08 08:33:46;;;;;;;11.30;7.70;;;;;;;;;;4888562;29;20083;-68
2022/03/08 08:36:12;;;;;;;10.82;8.25;;;;;;;;;;4888908;29;20096;-68
2022/03/08 08:38:38;;;;;;;10.43;7.28;;;;;;;;;;4888067;29;20094;-69
2022/03/08 08:41:04;;;;;;;13.27;7.90;;;;;;;;;;4888678;29;20470;-68
2022/03/08 08:43:29;;;;;;;14.60;8.75;;;;;;;;;;4889319;29;20127;-68
2022/03/08 08:45:55;;;;;;;11.95;7.10;;;;;;;;;;4888604;29;20037;-68
2022/03/08 08:48:22;;;;;;;6.47;5.22;;;;;;;;;;4889213;29;20040;-68
2022/03/08 08:50:47;;;;;;;6.95;5.68;;;;;;;;;;4875288;29;20131;-68
2022/03/08 08:53:13;;;;;;;9.52;5.65;;;;;;;;;;4888411;29;20040;-68
2022/03/08 08:55:39;;;;;;;8.18;5.80;;;;;;;;;;4887887;29;20033;-70
2022/03/08 08:58:05;;;;;;;9.65;6.20;;;;;;;;;;4888769;29;20407;-69
2022/03/08 09:00:31;;;;;;;6.93;5.10;;;;;;;;;;4888124;29;20371;-70
2022/03/08 09:02:57;;;;;;;8.18;4.90;;;;;;;;;;4888093;29;20047;-69
2022/03/08 09:05:22;;;;;;;6.35;4.45;;;;;;;;;;4888167;29;20065;-71
2022/03/08 09:07:48;;;;;;;5.78;4.82;;;;;;;;;;4888323;29;20040;-70
2022/03/08 09:10:15;;;;;;;6.95;4.60;;;;;;;;;;4888635;29;20053;-68
2022/03/08 09:12:48;;;;;;;8.52;3.83;;;;;;;;;;4887332;29;20085;-68
2022/03/08 09:15:14;;;;;;;5.97;4.78;;;;;;;;;;4887939;29;20526;-69
2022/03/08 09:17:39;;;;;;;4.75;4.00;;;;;;;;;;4888192;29;20036;-69
2022/03/08 09:20:06;;;;;;;7.97;4.22;;;;;;;;;;4873422;29;21195;-69
2022/03/08 09:22:31;;;;;;;5.32;3.67;;;;;;;;;;4887260;29;20040;-70
2022/03/08 09:24:57;;;;;;;6.25;3.70;;;;;;;;;;4887606;29;20032;-70
2022/03/08 09:27:22;;;;;;;7.50;4.35;;;;;;;;;;4887832;29;20450;-68
2022/03/08 09:29:47;;;;;;;3.28;2.97;;;;;;;;;;4888487;29;20063;-70
2022/03/08 09:32:14;;;;;;;4.70;4.13;;;;;;;;;;4887831;29;20506;-69
2022/03/08 09:34:39;;;;;;;5.32;4.03;;;;;;;;;;4887560;29;20032;-69
2022/03/08 09:37:06;;;;;;;8.18;3.50;;;;;;;;;;4887544;29;20083;-69
2022/03/08 09:39:32;;;;;;;4.40;2.97;;;;;;;;;;4890019;29;20092;-67
2022/03/08 09:41:58;;;;;;;5.45;3.60;;;;;;;;;;4896023;29;20041;-66
2022/03/08 09:44:24;;;;;;;7.55;4.40;;;;;;;;;;4892628;29;20029;-67
2022/03/08 09:46:50;;;;;;;5.05;2.90;;;;;;;;;;4887108;29;20071;-67
2022/03/08 09:49:15;;;;;;;7.28;4.00;;;;;;;;;;4887501;29;20915;-68
2022/03/08 09:51:41;;;;;;;6.78;3.20;;;;;;;;;;4887548;29;20100;-68
2022/03/08 09:54:06;;;;;;;9.18;4.60;;;;;;;;;;4887285;29;20048;-68
2022/03/08 09:56:33;;;;;;;5.18;3.65;;;;;;;;;;4886536;29;20047;-66
2022/03/08 09:58:59;;;;;;;6.38;3.15;;;;;;;;;;4886720;29;20041;-68
2022/03/08 10:01:25;;;;;;;5.70;4.22;;;;;;;;;;4887398;29;20041;-68
2022/03/08 10:03:51;;;;;;;5.70;3.72;;;;;;;;;;4887693;29;20044;-68
2022/03/08 10:06:17;;;;;;;6.13;3.28;;;;;;;;;;4886405;29;20088;-67
2022/03/08 10:08:42;;;;;;;5.22;3.35;;;;;;;;;;4887159;29;20047;-66
2022/03/08 10:11:12;;;;;;;4.32;3.33;;;;;;;;;;4887202;29;20070;-70
2022/03/08 10:13:48;;;;;;;9.55;4.05;;;;;;;;;;4887286;29;20494;-68
2022/03/08 10:16:23;;;;;;;4.20;3.13;;;;;;;;;;4886606;29;20288;-69
2022/03/08 10:18:58;;;;;;;4.55;3.75;;;;;;;;;;4886448;29;20103;-70
2022/03/08 10:21:36;;;;;;;8.90;3.97;;;;;;;;;;4887034;29;20242;-66
2022/03/08 10:24:18;;;;;;;4.80;3.20;;;;;;;;;;4886631;29;20065;-69
2022/03/08 10:26:48;;;;;;;6.05;3.60;;;;;;;;;;4887005;29;20048;-67
2022/03/08 10:29:21;;;;;;;4.60;3.22;;;;;;;;;;4886251;29;20128;-68
2022/03/08 10:31:46;;;;;;;4.63;3.70;;;;;;;;;;4887070;29;20033;-68
2022/03/08 10:34:16;;;;;;;2.88;2.58;;;;;;;;;;4886493;29;20048;-68
2022/03/08 10:36:58;;;;;;;4.15;2.83;;;;;;;;;;4886580;29;20079;-69
2022/03/08 10:39:23;;;;;;;8.75;3.78;;;;;;;;;;4886101;29;20041;-67
2022/03/08 10:41:54;;;;;;;12.27;3.97;;;;;;;;;;4873666;29;20095;-67
2022/03/08 10:44:31;;;;;;;5.40;3.20;;;;;;;;;;4885841;29;20051;-65
2022/03/08 10:47:02;;;;;;;6.47;3.58;;;;;;;;;;4886421;29;20095;-69
2022/03/08 10:49:28;;;;;;;3.13;2.60;;;;;;;;;;4886821;29;20083;-68
2022/03/08 10:52:04;;;;;;;3.95;3.25;;;;;;;;;;4885732;29;20040;-66
2022/03/08 10:54:31;;;;;;;4.60;3.40;;;;;;;;;;4886286;29;20067;-67
2022/03/08 10:56:56;;;;;;;5.80;2.90;;;;;;;;;;4886511;29;20132;-69
2022/03/08 10:59:22;;;;;;;3.53;3.03;;;;;;;;;;4886566;29;20119;-68
2022/03/08 11:01:48;;;;;;;4.57;3.20;;;;;;;;;;4885892;29;20048;-67
2022/03/08 11:04:19;;;;;;;3.22;2.85;;;;;;;;;;4886152;29;20032;-68
2022/03/08 11:06:50;;;;;;;4.57;3.13;;;;;;;;;;4885705;29;20498;-68
2022/03/08 11:09:16;;;;;;;3.60;3.28;;;;;;;;;;4886643;29;20051;-67
2022/03/08 11:11:41;;;;;;;2.67;2.45;;;;;;;;;;4886518;29;20037;-69
2022/03/08 11:14:08;;;;;;;5.57;3.70;;;;;;;;;;4885352;29;20406;-68
2022/03/08 11:16:33;;;;;;;8.38;3.58;;;;;;;;;;4885905;29;20032;-68
2022/03/08 11:18:59;;;;;;;3.55;2.78;;;;;;;;;;4886886;29;20048;-69
2022/03/08 11:21:26;;;;;;;5.30;2.97;;;;;;;;;;4861308;29;20485;-67
2022/03/08 11:23:54;;;;;;;4.45;3.30;;;;;;;;;;4885357;29;20450;-67
2022/03/08 11:26:20;;;;;;;3.50;3.03;;;;;;;;;;4886266;29;20075;-67
2022/03/08 11:28:47;;;;;;;3.92;2.80;;;;;;;;;;4890034;29;20037;-68
2022/03/08 11:31:18;;;;;;;3.35;3.05;;;;;;;;;;4890114;29;20056;-68
2022/03/08 11:33:43;;;;;;;3.90;2.60;;;;;;;;;;4889879;29;20048;-69
2022/03/08 11:36:15;;;;;;;5.20;2.80;;;;;;;;;;4889041;29;20099;-69
2022/03/08 11:38:40;;;;;;;2.75;2.40;;;;;;;;;;4890195;29;20039;-68
2022/03/08 11:41:06;;;;;;;3.72;2.65;;;;;;;;;;4890220;29;20044;-68
2022/03/08 11:43:42;;;;;;;3.85;3.30;;;;;;;;;;4890151;29;20032;-68
2022/03/08 11:46:21;;;;;;;5.32;2.80;;;;;;;;;;4888795;29;20048;-68
2022/03/08 11:48:56;;;;;;;5.70;3.35;;;;;;;;;;4889893;29;20040;-68
2022/03/08 11:51:23;;;;;;;6.97;3.65;;;;;;;;;;4889893;29;20037;-68
2022/03/08 11:54:24;;;;;;;4.05;2.97;;;;;;;;;;4889916;29;20672;-68
2022/03/08 11:56:54;;;;;;;3.10;2.80;;;;;;;;;;4888490;29;20051;-67
2022/03/08 11:59:20;;;;;;;4.38;2.42;;;;;;;;;;4889667;29;20580;-68
2022/03/08 12:01:47;;;;;;;4.00;3.28;;;;;;;;;;4889830;29;20100;-69
2022/03/08 12:04:16;;;;;;;3.55;2.95;;;;;;;;;;4889354;29;20040;-69
2022/03/08 12:06:53;;;;;;;7.40;2.88;;;;;;;;;;4889103;29;20457;-68
2022/03/08 12:09:21;;;;;;;5.32;3.10;;;;;;;;;;4888795;29;20121;-67
2022/03/08 12:11:51;;;;;;;4.60;3.30;;;;;;;;;;4889581;29;20135;-68
2022/03/08 12:14:30;;;;;;;3.45;2.97;;;;;;;;;;4889296;29;20084;-69
2022/03/08 12:17:14;;;;;;;3.63;3.17;;;;;;;;;;4889209;29;20131;-68
2022/03/08 12:19:42;;;;;;;4.38;3.17;;;;;;;;;;4887287;29;20096;-68
2022/03/08 12:22:23;;;;;;;5.10;3.05;;;;;;;;;;4888988;29;20067;-67
2022/03/08 12:24:51;;;;;;;3.42;2.63;;;;;;;;;;4888876;29;20131;-67
2022/03/08 12:27:18;;;;;;;5.07;3.15;;;;;;;;;;4888934;29;20494;-70
2022/03/08 12:29:46;;;;;;;6.57;4.10;;;;;;;;;;4888245;29;20051;-68
2022/03/08 12:32:22;;;;;;;4.85;3.00;;;;;;;;;;4888095;29;20536;-69
2022/03/08 12:34:50;;;;;;;4.05;2.67;;;;;;;;;;4889267;29;20154;-67
2022/03/08 12:37:16;;;;;;;3.05;2.70;;;;;;;;;;4888391;29;20067;-69
2022/03/08 12:39:43;;;;;;;3.67;3.33;;;;;;;;;;4888907;29;20044;-68
2022/03/08 12:42:16;;;;;;;4.93;3.15;;;;;;;;;;4888349;29;20064;-69
2022/03/08 12:44:50;;;;;;;3.45;2.80;;;;;;;;;;4888513;29;20036;-70
2022/03/08 12:47:17;;;;;;;4.72;3.05;;;;;;;;;;4888952;29;20132;-69
2022/03/08 12:49:43;;;;;;;3.42;2.53;;;;;;;;;;4888193;29;20035;-68
2022/03/08 12:52:09;;;;;;;10.20;5.15;;;;;;;;;;4887242;29;20045;-68
2022/03/08 12:54:36;;;;;;;11.55;4.53;;;;;;;;;;4887693;29;20040;-68
2022/03/08 12:57:02;;;;;;;41.90;11.38;;;;;;;;;;4887348;29;20036;-68
2022/03/08 12:59:28;;;;;;;6.32;4.25;;;;;;;;;;4887673;29;20036;-68
2022/03/08 13:02:06;;;;;;;4.80;3.60;;;;;;;;;;4887459;29;20104;-68
2022/03/08 13:04:32;;;;;;;5.57;3.03;;;;;;;;;;4887572;29;20043;-68
2022/03/08 13:07:12;;;;;;;4.68;3.10;;;;;;;;;;4888426;29;20052;-68
2022/03/08 13:10:07;;;;;;;5.78;2.95;;;;;;;;;;4888246;29;20036;-68
2022/03/08 13:12:33;;;;;;;4.10;2.35;;;;;;;;;;4882699;29;20091;-69
2022/03/08 13:15:16;;;;;;;6.03;2.60;;;;;;;;;;4887341;29;20494;-68
2022/03/08 13:17:43;;;;;;;3.85;2.85;;;;;;;;;;4888096;29;20040;-69
2022/03/08 13:20:32;;;;;;;3.80;2.72;;;;;;;;;;4886948;29;20056;-69
2022/03/08 13:23:00;;;;;;;7.13;3.08;;;;;;;;;;4887797;29;20120;-69
2022/03/08 13:25:28;;;;;;;3.88;3.00;;;;;;;;;;4886820;29;20044;-67
2022/03/08 13:28:03;;;;;;;4.57;2.80;;;;;;;;;;4886640;29;20048;-69
2022/03/08 13:30:35;;;;;;;10.00;3.30;;;;;;;;;;4896784;29;20037;-69
2022/03/08 13:33:11;;;;;;;5.13;3.53;;;;;;;;;;4899291;29;20045;-69
2022/03/08 13:35:38;;;;;;;4.35;3.10;;;;;;;;;;4887277;29;20044;-67
2022/03/08 13:38:04;;;;;;;2.75;2.42;;;;;;;;;;4886209;29;20052;-69
2022/03/08 13:40:32;;;;;;;6.53;3.15;;;;;;;;;;4887291;29;20048;-68
2022/03/08 13:42:59;;;;;;;6.28;3.20;;;;;;;;;;4885487;29;20037;-68
2022/03/08 13:45:26;;;;;;;6.57;3.40;;;;;;;;;;4884750;29;20557;-69
2022/03/08 13:47:54;;;;;;;6.15;3.25;;;;;;;;;;4886495;29;20868;-70
2022/03/08 13:50:25;;;;;;;4.45;2.92;;;;;;;;;;4885786;29;20461;-70
2022/03/08 13:52:50;;;;;;;5.55;3.45;;;;;;;;;;4887153;29;20036;-69
2022/03/08 13:55:16;;;;;;;4.72;2.65;;;;;;;;;;4887449;29;20047;-69
2022/03/08 13:58:06;;;;;;;4.10;2.97;;;;;;;;;;4886956;29;20049;-70
2022/03/08 14:00:37;;;;;;;9.25;3.42;;;;;;;;;;4887198;29;20122;-69
2022/03/08 14:03:04;;;;;;;5.10;3.13;;;;;;;;;;4887531;29;20032;-71
2022/03/08 14:05:56;;;;;;;5.45;2.97;;;;;;;;;;4887162;29;20164;-68
2022/03/08 14:08:24;;;;;;;4.60;3.40;;;;;;;;;;4886921;29;20036;-68
2022/03/08 14:10:52;;;;;;;4.90;3.60;;;;;;;;;;4887639;29;20962;-70
2022/03/08 14:13:18;;;;;;;6.00;3.45;;;;;;;;;;4886871;29;20036;-69
2022/03/08 14:16:00;;;;;;;4.75;3.60;;;;;;;;;;4887017;29;20398;-71
2022/03/08 14:18:25;;;;;;;5.57;3.22;;;;;;;;;;4887004;29;20052;-67
2022/03/08 14:20:51;;;;;;;6.75;4.15;;;;;;;;;;4886715;29;20055;-72
2022/03/08 14:23:17;;;;;;;4.30;3.60;;;;;;;;;;4886980;29;20028;-70
2022/03/08 14:26:06;;;;;;;5.80;3.35;;;;;;;;;;4886896;29;20050;-70
2022/03/08 14:28:40;;;;;;;4.88;3.17;;;;;;;;;;4887384;29;20081;-69